Time;durP1;ratioP1;P1;durP2;ratioP2;P2;SDS_P1;SDS_P2;PMS_P1;PMS_P2;Temp;Humidity;BMP_temperature;BMP_pressure;BME280_temperature;BME280_humidity;BME280_pressure;Samples;Min_cycle;Max_cycle;Signal;HPM_P1;HPM_P2
2023/01/08 00:00:06;;;;;;;7.43;3.53;;;8.30;99.90;;;;;;5092630;28;20040;-53
2023/01/08 00:02:31;;;;;;;7.05;3.22;;;8.30;99.90;;;;;;5096901;28;20032;-51
2023/01/08 00:04:57;;;;;;;6.53;3.88;;;8.30;99.90;;;;;;5096020;28;20034;-53
2023/01/08 00:07:22;;;;;;;5.50;3.30;;;8.30;99.90;;;;;;5085728;28;20511;-55
2023/01/08 00:09:49;;;;;;;5.03;3.85;;;8.30;99.90;;;;;;5093383;28;20107;-54
2023/01/08 00:12:15;;;;;;;4.68;3.05;;;8.20;99.90;;;;;;5089274;28;20028;-53
2023/01/08 00:14:40;;;;;;;6.10;3.35;;;8.30;99.90;;;;;;5098534;28;20051;-53
2023/01/08 00:17:07;;;;;;;5.28;3.58;;;8.20;99.90;;;;;;5081721;28;20036;-54
2023/01/08 00:19:33;;;;;;;5.03;3.28;;;8.30;99.90;;;;;;5092139;28;20047;-54
2023/01/08 00:21:58;;;;;;;8.70;3.97;;;8.20;99.90;;;;;;5090879;28;20555;-54
2023/01/08 00:24:23;;;;;;;5.35;3.67;;;8.10;99.90;;;;;;5093555;28;20492;-53
2023/01/08 00:26:49;;;;;;;4.93;3.65;;;8.10;99.90;;;;;;5091156;28;20489;-53
2023/01/08 00:29:15;;;;;;;8.45;3.88;;;8.00;99.90;;;;;;5092690;28;20066;-55
2023/01/08 00:31:40;;;;;;;4.72;3.58;;;7.90;99.90;;;;;;5091521;28;20500;-48
2023/01/08 00:34:05;;;;;;;4.95;3.67;;;7.90;99.90;;;;;;5099003;28;20050;-47
2023/01/08 00:36:31;;;;;;;7.53;3.85;;;7.90;99.90;;;;;;5083169;28;20088;-48
2023/01/08 00:38:58;;;;;;;8.77;3.88;;;7.80;99.90;;;;;;5090911;28;20032;-50
2023/01/08 00:41:24;;;;;;;7.05;4.25;;;7.80;99.90;;;;;;5090900;28;20028;-48
2023/01/08 00:43:49;;;;;;;5.82;4.68;;;7.70;99.90;;;;;;5089819;28;20028;-49
2023/01/08 00:46:15;;;;;;;8.63;3.90;;;7.70;99.90;;;;;;5088962;28;20609;-48
2023/01/08 00:48:40;;;;;;;6.10;3.63;;;7.60;99.90;;;;;;5088073;28;20030;-52
2023/01/08 00:51:07;;;;;;;6.43;4.18;;;7.60;99.90;;;;;;5087872;28;20028;-52
2023/01/08 00:53:33;;;;;;;6.93;3.78;;;7.50;99.90;;;;;;5084321;28;20461;-49
2023/01/08 00:56:05;;;;;;;6.43;3.83;;;7.50;99.90;;;;;;5088582;28;20063;-51
2023/01/08 00:58:30;;;;;;;8.13;4.20;;;7.50;99.90;;;;;;5087046;28;20042;-53
2023/01/08 01:00:56;;;;;;;5.95;3.75;;;7.50;99.90;;;;;;5089643;28;20547;-47
2023/01/08 01:03:22;;;;;;;6.22;4.00;;;7.50;99.90;;;;;;5088840;28;20519;-48
2023/01/08 01:05:48;;;;;;;6.90;4.13;;;7.50;99.90;;;;;;5087919;28;20024;-48
2023/01/08 01:08:14;;;;;;;5.25;4.00;;;7.40;99.90;;;;;;5089363;28;20597;-48
2023/01/08 01:10:39;;;;;;;5.70;3.75;;;7.40;99.90;;;;;;5089668;28;20105;-50
2023/01/08 01:13:05;;;;;;;6.55;3.90;;;7.40;99.90;;;;;;5090223;28;20046;-47
2023/01/08 01:15:31;;;;;;;4.63;3.50;;;7.40;99.90;;;;;;5090097;28;20028;-48
2023/01/08 01:17:56;;;;;;;7.20;3.75;;;7.40;99.90;;;;;;5089203;28;20031;-48
2023/01/08 01:20:22;;;;;;;6.28;4.10;;;7.40;99.90;;;;;;5088668;28;20115;-48
2023/01/08 01:22:48;;;;;;;5.60;4.40;;;7.30;99.90;;;;;;5088200;28;20025;-48
2023/01/08 01:25:14;;;;;;;7.18;4.13;;;7.30;99.90;;;;;;5089403;28;20021;-49
2023/01/08 01:27:39;;;;;;;8.07;3.92;;;7.30;99.90;;;;;;5089752;28;20032;-47
2023/01/08 01:30:06;;;;;;;7.07;4.07;;;7.30;99.90;;;;;;5109601;28;20089;-47
2023/01/08 01:32:32;;;;;;;6.47;4.20;;;7.30;99.90;;;;;;5086625;28;20039;-48
2023/01/08 01:34:57;;;;;;;6.85;3.97;;;7.20;99.90;;;;;;5108981;28;20031;-48
2023/01/08 01:37:23;;;;;;;7.93;4.53;;;7.20;99.90;;;;;;5085952;28;20035;-49
2023/01/08 01:39:48;;;;;;;7.28;4.75;;;7.20;99.90;;;;;;5087750;28;20055;-49
2023/01/08 01:45:00;;;;;;;8.00;4.18;;;7.20;99.90;;;;;;5086661;28;20028;-47
2023/01/08 01:47:36;;;;;;;7.28;4.90;;;7.10;99.90;;;;;;5088082;28;20084;-47
2023/01/08 01:50:08;;;;;;;6.82;4.82;;;7.20;99.90;;;;;;5086691;28;20039;-47
2023/01/08 01:52:44;;;;;;;7.72;4.65;;;7.20;99.90;;;;;;5104000;28;20047;-50
2023/01/08 01:55:11;;;;;;;6.03;4.05;;;7.20;99.90;;;;;;5089379;28;20568;-48
2023/01/08 01:57:38;;;;;;;7.15;4.00;;;7.10;99.90;;;;;;5104659;28;20027;-52
2023/01/08 02:00:06;;;;;;;7.38;4.43;;;7.10;99.90;;;;;;5089183;28;20031;-49
2023/01/08 02:02:32;;;;;;;8.27;4.85;;;7.10;99.90;;;;;;5105372;28;20437;-52
2023/01/08 02:04:59;;;;;;;5.80;4.28;;;7.00;99.90;;;;;;5090274;28;20027;-48
2023/01/08 02:07:50;;;;;;;6.70;3.72;;;7.00;99.90;;;;;;5106694;28;20418;-51
2023/01/08 02:10:25;;;;;;;7.55;4.55;;;6.90;99.90;;;;;;5085973;28;20047;-53
2023/01/08 02:12:58;;;;;;;6.07;3.95;;;6.90;99.90;;;;;;5071460;28;20027;-50
2023/01/08 02:15:50;;;;;;;6.20;3.78;;;6.80;99.90;;;;;;5089101;28;20031;-49
2023/01/08 02:18:25;;;;;;;10.13;4.63;;;6.80;99.90;;;;;;5074752;28;20058;-47
2023/01/08 02:21:06;;;;;;;6.28;4.03;;;6.80;99.90;;;;;;5068929;28;20090;-51
2023/01/08 02:24:22;;;;;;;6.25;3.83;;;6.70;99.90;;;;;;5076933;28;20078;-48
2023/01/08 02:26:51;;;;;;;6.25;4.18;;;6.70;99.90;;;;;;5006444;28;20701;-49
2023/01/08 02:29:21;;;;;;;5.28;3.53;;;6.60;99.90;;;;;;5080077;28;20040;-48
2023/01/08 02:31:47;;;;;;;6.15;4.15;;;6.60;99.90;;;;;;5112754;28;20032;-50
2023/01/08 02:34:12;;;;;;;6.70;4.00;;;6.60;99.90;;;;;;5091590;28;20024;-51
2023/01/08 02:36:44;;;;;;;5.95;3.65;;;6.50;99.90;;;;;;5110569;28;20109;-49
2023/01/08 02:39:42;;;;;;;7.75;4.22;;;6.50;99.90;;;;;;5072638;28;20044;-48
2023/01/08 02:42:22;;;;;;;7.80;4.68;;;6.50;99.90;;;;;;5103913;28;20399;-51
2023/01/08 02:45:24;;;;;;;7.07;4.15;;;6.40;99.90;;;;;;5072422;28;20423;-47
2023/01/08 02:48:04;;;;;;;8.32;4.80;;;6.30;99.90;;;;;;5089518;28;20454;-49
2023/01/08 02:50:41;;;;;;;6.68;4.03;;;6.30;99.90;;;;;;5072187;28;20043;-47
2023/01/08 02:53:33;;;;;;;5.85;4.18;;;6.30;99.90;;;;;;5072349;28;20025;-48
2023/01/08 02:56:06;;;;;;;7.53;4.28;;;6.20;99.90;;;;;;5076645;28;20031;-52
2023/01/08 02:58:35;;;;;;;5.97;4.30;;;6.10;99.90;;;;;;5112740;28;20059;-51
2023/01/08 03:01:03;;;;;;;5.88;3.75;;;6.10;99.90;;;;;;5094128;28;20036;-48
2023/01/08 03:03:29;;;;;;;5.85;3.67;;;6.00;99.90;;;;;;5112850;28;20126;-49
2023/01/08 03:06:22;;;;;;;6.10;3.97;;;6.00;99.90;;;;;;5086385;28;20926;-56
2023/01/08 03:08:50;;;;;;;9.15;4.80;;;6.00;99.90;;;;;;5108597;28;20031;-53
2023/01/08 03:11:21;;;;;;;9.02;4.57;;;5.90;99.90;;;;;;5095855;28;20032;-54
2023/01/08 03:13:59;;;;;;;6.85;4.40;;;5.90;99.90;;;;;;5112556;28;20039;-52
2023/01/08 03:16:32;;;;;;;12.82;5.03;;;5.80;99.90;;;;;;5083713;28;20032;-53
2023/01/08 03:19:24;;;;;;;7.97;4.78;;;5.80;99.90;;;;;;5112574;28;20227;-55
2023/01/08 03:21:52;;;;;;;6.97;4.20;;;5.70;99.90;;;;;;5090720;28;20106;-53
2023/01/08 03:24:21;;;;;;;6.95;3.67;;;5.70;99.90;;;;;;5092289;28;20054;-54
2023/01/08 03:26:49;;;;;;;5.45;3.60;;;5.60;99.90;;;;;;5110064;28;20429;-56
2023/01/08 03:29:17;;;;;;;8.63;5.00;;;5.60;99.90;;;;;;5091884;28;20039;-52
2023/01/08 03:31:46;;;;;;;6.63;4.55;;;5.50;99.90;;;;;;5109880;28;20030;-55
2023/01/08 03:34:13;;;;;;;8.23;5.10;;;5.50;99.90;;;;;;5091800;28;20427;-53
2023/01/08 03:36:42;;;;;;;6.97;5.05;;;5.50;99.90;;;;;;5100351;28;20032;-54
2023/01/08 03:39:59;;;;;;;5.38;3.92;;;5.60;99.90;;;;;;5111907;28;20089;-52
2023/01/08 03:42:25;;;;;;;7.43;4.10;;;5.50;99.90;;;;;;5054826;28;20080;-55
2023/01/08 03:44:51;;;;;;;8.43;5.00;;;5.50;99.90;;;;;;5110948;28;20394;-55
2023/01/08 03:47:18;;;;;;;7.32;4.50;;;5.50;99.90;;;;;;5090244;28;20111;-54
2023/01/08 03:49:45;;;;;;;10.20;5.07;;;5.40;99.90;;;;;;5111378;28;20027;-57
2023/01/08 03:52:21;;;;;;;8.25;4.30;;;5.40;99.90;;;;;;5090048;28;20040;-56
2023/01/08 03:54:46;;;;;;;7.05;4.95;;;5.40;99.90;;;;;;5071435;28;20491;-55
2023/01/08 03:57:12;;;;;;;9.00;4.75;;;5.40;99.90;;;;;;5094981;28;20032;-54
2023/01/08 03:59:37;;;;;;;7.78;4.95;;;5.50;99.90;;;;;;5110951;28;20454;-53
2023/01/08 04:02:03;;;;;;;7.25;4.68;;;5.40;99.90;;;;;;5090149;28;20028;-56
2023/01/08 04:04:28;;;;;;;9.30;5.15;;;5.40;99.90;;;;;;5109337;28;20032;-55
2023/01/08 04:06:53;;;;;;;6.78;4.70;;;5.40;99.90;;;;;;5085667;28;20059;-53
2023/01/08 04:09:19;;;;;;;8.90;4.88;;;5.40;99.90;;;;;;5110884;28;20572;-56
2023/01/08 04:11:44;;;;;;;7.68;4.88;;;5.40;99.90;;;;;;5089575;28;20032;-55
2023/01/08 04:14:11;;;;;;;11.95;5.18;;;5.40;99.90;;;;;;5110735;28;20662;-51
2023/01/08 04:16:36;;;;;;;7.28;5.07;;;5.50;99.90;;;;;;5089603;28;20503;-52
2023/01/08 04:19:02;;;;;;;7.65;4.57;;;5.50;99.90;;;;;;5110643;28;20106;-53
2023/01/08 04:21:27;;;;;;;8.57;5.55;;;5.50;99.90;;;;;;5089545;28;20399;-53
2023/01/08 04:23:54;;;;;;;9.10;5.20;;;5.50;99.90;;;;;;5090861;28;20095;-55
2023/01/08 04:26:19;;;;;;;8.18;4.43;;;5.50;99.90;;;;;;5102514;28;20487;-52
2023/01/08 04:28:44;;;;;;;8.30;5.05;;;5.50;99.90;;;;;;5102999;28;20039;-55
2023/01/08 04:31:10;;;;;;;7.65;4.30;;;5.50;99.90;;;;;;5089343;28;20032;-55
2023/01/08 04:33:36;;;;;;;7.15;4.63;;;5.60;99.90;;;;;;5090796;28;20032;-51
2023/01/08 04:36:03;;;;;;;5.90;3.97;;;5.60;99.90;;;;;;5108309;28;20031;-55
2023/01/08 04:38:28;;;;;;;7.32;4.50;;;5.60;99.90;;;;;;5110706;28;20124;-50
2023/01/08 04:41:01;;;;;;;7.93;4.30;;;5.60;99.90;;;;;;5091873;28;20070;-52
2023/01/08 04:43:28;;;;;;;9.95;5.47;;;5.70;99.90;;;;;;5110860;28;20437;-57
2023/01/08 04:45:58;;;;;;;6.10;4.18;;;5.70;99.90;;;;;;5091428;28;20020;-54
2023/01/08 04:48:23;;;;;;;7.25;4.68;;;5.80;99.90;;;;;;5110685;28;20058;-53
2023/01/08 04:50:50;;;;;;;5.82;3.80;;;5.80;99.90;;;;;;5090870;28;20484;-52
2023/01/08 04:53:16;;;;;;;7.07;3.80;;;5.90;99.90;;;;;;5109910;28;20160;-56
2023/01/08 04:55:41;;;;;;;9.25;4.78;;;5.90;99.90;;;;;;5089605;28;20501;-54
2023/01/08 04:58:07;;;;;;;7.13;4.20;;;5.90;99.90;;;;;;5110618;28;20588;-55
2023/01/08 05:00:32;;;;;;;7.45;4.43;;;5.90;99.90;;;;;;5090543;28;20157;-54
2023/01/08 05:02:58;;;;;;;7.70;5.15;;;5.90;99.90;;;;;;5108336;28;20128;-51
2023/01/08 05:05:23;;;;;;;5.78;4.35;;;5.90;99.90;;;;;;5090617;28;20411;-53
2023/01/08 05:07:49;;;;;;;6.40;4.40;;;6.00;99.90;;;;;;5108404;28;20160;-55
2023/01/08 05:10:14;;;;;;;7.65;4.43;;;6.00;99.90;;;;;;5090378;28;20039;-55
2023/01/08 05:12:40;;;;;;;6.70;5.00;;;6.00;99.90;;;;;;5090113;28;20309;-53
2023/01/08 05:15:06;;;;;;;9.07;5.10;;;6.00;99.90;;;;;;5109363;28;20035;-55
2023/01/08 05:17:31;;;;;;;9.73;4.85;;;5.90;99.90;;;;;;5088402;28;20047;-55
2023/01/08 05:19:57;;;;;;;7.13;4.53;;;5.90;99.90;;;;;;5109352;28;20487;-52
2023/01/08 05:22:22;;;;;;;7.72;4.85;;;5.90;99.90;;;;;;5088255;28;20039;-52
2023/01/08 05:24:47;;;;;;;7.03;4.53;;;5.90;99.90;;;;;;5109252;28;20051;-54
2023/01/08 05:27:13;;;;;;;7.50;4.43;;;5.90;99.90;;;;;;5088172;28;20040;-51
2023/01/08 05:29:38;;;;;;;7.97;5.15;;;5.80;99.90;;;;;;5109390;28;20035;-54
2023/01/08 05:32:12;;;;;;;8.57;5.00;;;5.90;99.90;;;;;;5088270;28;20101;-54
2023/01/08 05:34:38;;;;;;;8.23;5.45;;;5.80;99.90;;;;;;5069350;28;20040;-55
2023/01/08 05:37:03;;;;;;;7.68;4.68;;;5.80;99.90;;;;;;5094176;28;20246;-51
2023/01/08 05:39:28;;;;;;;5.85;4.18;;;5.80;99.90;;;;;;5109091;28;20031;-51
2023/01/08 05:41:54;;;;;;;8.15;4.78;;;5.80;99.90;;;;;;5099187;28;20071;-52
2023/01/08 05:44:19;;;;;;;7.53;5.05;;;5.80;99.90;;;;;;5089783;28;20483;-50
2023/01/08 05:46:45;;;;;;;5.70;3.85;;;5.80;99.90;;;;;;5106949;28;20062;-55
2023/01/08 05:49:10;;;;;;;7.40;4.30;;;5.80;99.90;;;;;;5089873;28;20044;-51
2023/01/08 05:51:36;;;;;;;7.55;4.80;;;5.80;99.90;;;;;;5106930;28;20510;-52
2023/01/08 05:54:01;;;;;;;6.20;4.57;;;5.90;99.90;;;;;;5089953;28;20025;-52
2023/01/08 05:56:27;;;;;;;7.10;4.80;;;5.90;99.90;;;;;;5106788;28;20023;-55
2023/01/08 05:58:54;;;;;;;6.53;4.25;;;5.90;99.90;;;;;;5109586;28;20313;-55
2023/01/08 06:01:19;;;;;;;6.18;4.22;;;5.90;99.90;;;;;;5093680;28;20024;-50
2023/01/08 06:03:45;;;;;;;4.38;3.47;;;5.90;99.90;;;;;;5109494;28;20031;-54
2023/01/08 06:06:11;;;;;;;7.35;4.43;;;5.80;99.90;;;;;;5088794;28;20046;-52
2023/01/08 06:08:36;;;;;;;8.73;4.43;;;5.80;99.90;;;;;;5109425;28;20059;-55
2023/01/08 06:11:05;;;;;;;7.93;4.50;;;5.80;99.90;;;;;;5091388;28;20074;-53
2023/01/08 06:13:31;;;;;;;5.90;4.30;;;5.80;99.90;;;;;;5109422;28;20031;-50
2023/01/08 06:15:59;;;;;;;5.80;3.85;;;5.90;99.90;;;;;;5090611;28;20080;-56
2023/01/08 06:18:25;;;;;;;6.20;4.18;;;5.90;99.90;;;;;;5109657;28;20020;-53
2023/01/08 06:20:50;;;;;;;7.95;5.28;;;5.90;99.90;;;;;;5089703;28;20511;-53
2023/01/08 06:23:16;;;;;;;7.70;4.75;;;6.00;99.90;;;;;;5109338;28;20028;-54
2023/01/08 06:25:41;;;;;;;6.75;4.35;;;6.00;99.90;;;;;;5088186;28;20492;-53
2023/01/08 06:28:07;;;;;;;7.00;4.68;;;6.10;99.90;;;;;;5102028;28;20040;-54
2023/01/08 06:30:32;;;;;;;6.38;4.70;;;6.10;99.90;;;;;;5088846;28;20028;-52
2023/01/08 06:32:59;;;;;;;9.65;4.55;;;6.20;99.90;;;;;;5107052;28;20491;-53
2023/01/08 06:35:25;;;;;;;5.40;4.18;;;6.20;99.90;;;;;;5089022;28;20518;-50
2023/01/08 06:37:52;;;;;;;7.05;4.18;;;6.20;99.90;;;;;;5087405;28;20407;-52
2023/01/08 06:40:18;;;;;;;6.82;3.80;;;6.30;99.90;;;;;;5108702;28;20027;-53
2023/01/08 06:42:45;;;;;;;8.23;3.95;;;6.30;99.90;;;;;;5087570;28;20035;-56
2023/01/08 06:45:10;;;;;;;8.13;4.20;;;6.30;99.90;;;;;;5108577;28;20028;-54
2023/01/08 06:47:36;;;;;;;5.10;3.67;;;6.30;99.90;;;;;;5087616;28;20508;-53
2023/01/08 06:50:02;;;;;;;6.65;3.90;;;6.40;99.90;;;;;;5108381;28;20035;-52
2023/01/08 06:52:27;;;;;;;4.65;3.47;;;6.40;99.90;;;;;;5087220;28;20123;-52
2023/01/08 06:54:53;;;;;;;8.38;3.92;;;6.40;99.90;;;;;;5108649;28;20091;-55
2023/01/08 06:57:18;;;;;;;7.18;4.47;;;6.30;99.90;;;;;;5087675;28;20032;-54
2023/01/08 06:59:44;;;;;;;5.28;4.03;;;6.40;99.90;;;;;;5108429;28;20050;-56
2023/01/08 07:02:13;;;;;;;6.63;3.85;;;6.40;99.90;;;;;;5087651;28;20400;-54
2023/01/08 07:04:38;;;;;;;5.45;3.50;;;6.40;99.90;;;;;;5106044;28;20096;-55
2023/01/08 07:07:04;;;;;;;5.65;3.42;;;6.40;99.90;;;;;;5083033;28;20132;-52
2023/01/08 07:09:29;;;;;;;6.10;3.78;;;6.40;99.90;;;;;;5108332;28;20484;-51
2023/01/08 07:11:55;;;;;;;4.13;3.13;;;6.30;99.90;;;;;;5087391;28;20048;-52
2023/01/08 07:14:20;;;;;;;5.75;3.63;;;6.30;99.90;;;;;;5108416;28;20552;-56
2023/01/08 07:16:46;;;;;;;7.88;3.70;;;6.40;99.90;;;;;;5089338;28;20058;-55
2023/01/08 07:19:11;;;;;;;6.68;3.75;;;6.40;99.90;;;;;;5112055;28;20055;-54
2023/01/08 07:21:37;;;;;;;6.82;3.80;;;6.40;99.90;;;;;;5089600;28;20027;-55
2023/01/08 07:24:03;;;;;;;7.18;3.92;;;6.40;99.90;;;;;;5111899;28;20479;-57
2023/01/08 07:26:28;;;;;;;7.82;4.30;;;6.50;99.90;;;;;;5090667;28;20555;-54
2023/01/08 07:28:54;;;;;;;3.50;3.13;;;6.50;99.90;;;;;;5105774;28;20044;-54
2023/01/08 07:31:19;;;;;;;8.13;4.15;;;6.50;99.90;;;;;;5090801;28;20695;-53
2023/01/08 07:33:45;;;;;;;6.00;3.63;;;6.50;99.90;;;;;;5092257;28;20028;-51
2023/01/08 07:36:10;;;;;;;5.03;3.60;;;6.60;99.90;;;;;;5104692;28;20499;-55
2023/01/08 07:38:36;;;;;;;5.20;3.60;;;6.60;99.90;;;;;;5092114;28;20040;-52
2023/01/08 07:41:01;;;;;;;7.40;4.18;;;6.60;99.90;;;;;;5106081;28;20104;-52
2023/01/08 07:43:28;;;;;;;4.80;3.28;;;6.70;99.90;;;;;;5091951;28;20026;-54
2023/01/08 07:45:54;;;;;;;4.75;3.45;;;6.70;99.90;;;;;;5107177;28;20032;-52
2023/01/08 07:48:19;;;;;;;5.80;3.60;;;6.80;99.90;;;;;;5091904;28;20097;-53
2023/01/08 07:50:45;;;;;;;4.97;3.75;;;6.80;99.90;;;;;;5107959;28;20531;-55
2023/01/08 07:53:12;;;;;;;4.60;3.60;;;6.90;99.90;;;;;;5091876;28;20092;-51
2023/01/08 07:55:37;;;;;;;4.65;3.30;;;6.90;99.90;;;;;;5109202;28;20039;-53
2023/01/08 07:58:11;;;;;;;5.40;3.42;;;7.00;99.90;;;;;;5091801;28;20020;-57
2023/01/08 08:00:37;;;;;;;8.20;4.15;;;7.10;99.90;;;;;;5109483;28;20088;-53
2023/01/08 08:03:05;;;;;;;5.07;3.13;;;7.10;99.90;;;;;;5091611;28;20018;-56
2023/01/08 08:05:30;;;;;;;5.07;3.75;;;7.20;99.90;;;;;;5095395;28;20491;-54
2023/01/08 08:07:56;;;;;;;5.85;3.55;;;7.20;99.90;;;;;;5089606;28;20031;-55
2023/01/08 08:10:21;;;;;;;4.05;3.10;;;7.30;99.90;;;;;;5110952;28;20038;-51
2023/01/08 08:12:47;;;;;;;4.70;3.50;;;7.30;99.90;;;;;;5090192;28;20043;-53
2023/01/08 08:15:12;;;;;;;5.68;3.38;;;7.40;99.90;;;;;;5111106;28;20097;-54
2023/01/08 08:17:37;;;;;;;3.92;2.97;;;7.40;99.90;;;;;;5090121;28;20545;-53
2023/01/08 08:20:03;;;;;;;6.43;4.10;;;7.50;99.90;;;;;;5110928;28;20042;-52
2023/01/08 08:22:29;;;;;;;4.85;2.85;;;7.50;99.90;;;;;;5089741;28;20028;-54
2023/01/08 08:24:54;;;;;;;5.65;3.45;;;7.60;99.90;;;;;;5110788;28;20055;-57
2023/01/08 08:27:21;;;;;;;4.13;2.92;;;7.60;99.90;;;;;;5089274;28;20024;-57
2023/01/08 08:29:47;;;;;;;6.13;3.03;;;7.60;99.90;;;;;;5110067;28;20034;-55
2023/01/08 08:32:12;;;;;;;3.95;2.97;;;7.70;99.90;;;;;;5089712;28;20036;-54
2023/01/08 08:34:37;;;;;;;4.47;3.05;;;7.70;99.90;;;;;;5110544;28;20597;-54
2023/01/08 08:37:03;;;;;;;5.32;3.22;;;7.80;99.90;;;;;;5089553;28;20036;-56
2023/01/08 08:39:28;;;;;;;4.28;3.33;;;7.80;99.90;;;;;;5110473;28;20102;-51
2023/01/08 08:41:54;;;;;;;5.32;3.67;;;7.80;99.90;;;;;;5089518;28;20094;-50
2023/01/08 08:44:19;;;;;;;5.65;3.58;;;7.90;99.90;;;;;;5110363;28;20032;-52
2023/01/08 08:46:45;;;;;;;7.72;3.78;;;7.90;99.90;;;;;;5088107;28;20404;-56
2023/01/08 08:49:10;;;;;;;4.97;3.80;;;7.90;99.90;;;;;;5110495;28;20059;-56
2023/01/08 08:51:36;;;;;;;5.95;4.13;;;7.90;99.90;;;;;;5089110;28;20048;-55
2023/01/08 08:54:01;;;;;;;4.55;3.72;;;8.00;99.90;;;;;;5110158;28;20028;-58
2023/01/08 08:56:28;;;;;;;4.85;3.75;;;8.00;99.90;;;;;;5089224;28;20035;-53
2023/01/08 08:58:54;;;;;;;5.45;3.55;;;8.00;99.90;;;;;;5090631;28;20099;-54
2023/01/08 09:01:20;;;;;;;4.93;3.65;;;8.10;99.90;;;;;;5101840;28;20099;-55
2023/01/08 09:03:45;;;;;;;7.47;3.72;;;8.10;99.90;;;;;;5090471;28;20059;-57
2023/01/08 09:06:13;;;;;;;6.38;3.15;;;8.20;99.90;;;;;;5099326;28;20016;-56
2023/01/08 09:08:39;;;;;;;9.65;5.60;;;8.20;99.90;;;;;;5090314;28;20059;-55
2023/01/08 09:11:04;;;;;;;9.50;5.15;;;8.30;99.90;;;;;;5103785;28;20102;-50
2023/01/08 09:13:30;;;;;;;8.98;5.28;;;8.40;99.90;;;;;;5090314;28;20027;-53
2023/01/08 09:15:59;;;;;;;6.93;4.43;;;8.40;99.90;;;;;;5093731;28;20391;-55
2023/01/08 09:18:25;;;;;;;7.63;4.32;;;8.50;99.90;;;;;;5088936;28;20093;-55
2023/01/08 09:20:50;;;;;;;16.20;4.55;;;8.50;99.90;;;;;;5081271;28;20035;-57
2023/01/08 09:23:16;;;;;;;5.18;3.70;;;8.60;99.90;;;;;;5088235;28;20060;-53
2023/01/08 09:25:41;;;;;;;5.32;3.83;;;8.70;99.90;;;;;;5098599;28;20035;-52
2023/01/08 09:28:11;;;;;;;6.45;4.60;;;8.70;99.90;;;;;;5098036;28;20072;-54
2023/01/08 09:30:37;;;;;;;8.68;5.60;;;8.80;99.90;;;;;;5086697;28;20098;-54
2023/01/08 09:33:04;;;;;;;3.92;3.38;;;8.80;99.90;;;;;;5098062;28;20024;-54
2023/01/08 09:35:30;;;;;;;5.13;3.40;;;8.90;99.90;;;;;;5086422;28;20059;-55
2023/01/08 09:37:56;;;;;;;5.88;4.50;;;9.00;99.90;;;;;;5091687;28;20389;-54
2023/01/08 09:40:24;;;;;;;9.90;6.30;;;9.00;99.90;;;;;;5089951;28;20024;-52
2023/01/08 09:42:57;;;;;;;7.85;5.22;;;8.90;99.90;;;;;;5098155;28;20020;-55
2023/01/08 09:45:38;;;;;;;5.40;4.18;;;8.90;99.90;;;;;;5086794;28;20108;-53
2023/01/08 09:48:10;;;;;;;5.03;3.60;;;8.90;99.90;;;;;;5111400;28;20023;-57
2023/01/08 09:50:36;;;;;;;5.38;3.45;;;9.00;99.90;;;;;;5083882;28;20040;-55
2023/01/08 09:53:02;;;;;;;4.88;3.20;;;8.90;99.90;;;;;;5107047;28;20057;-56
2023/01/08 09:55:31;;;;;;;4.63;3.17;;;8.90;99.90;;;;;;5087234;28;20032;-56
2023/01/08 09:57:58;;;;;;;7.28;4.53;;;8.90;99.90;;;;;;5108553;28;20031;-55
2023/01/08 10:00:30;;;;;;;8.38;4.70;;;8.90;99.90;;;;;;5086283;28;20029;-56
2023/01/08 10:02:56;;;;;;;6.15;4.28;;;8.90;99.90;;;;;;5068361;28;20123;-53
2023/01/08 10:05:22;;;;;;;10.60;6.93;;;8.90;99.90;;;;;;5089665;28;20024;-57
2023/01/08 10:07:48;;;;;;;31.95;15.30;;;9.00;99.90;;;;;;5108766;28;20029;-50
2023/01/08 10:10:24;;;;;;;12.88;8.75;;;9.00;99.90;;;;;;5087017;28;20028;-53
2023/01/08 10:12:52;;;;;;;11.27;7.68;;;9.00;99.90;;;;;;5067892;28;20036;-54
2023/01/08 10:15:19;;;;;;;9.00;5.97;;;9.00;99.90;;;;;;5090785;28;20032;-54
2023/01/08 10:17:53;;;;;;;5.82;4.38;;;9.00;99.90;;;;;;5106098;28;20044;-54
2023/01/08 10:20:24;;;;;;;11.38;8.35;;;9.10;99.90;;;;;;5080995;28;20031;-52
2023/01/08 10:22:53;;;;;;;14.23;8.68;;;9.20;99.90;;;;;;5107744;28;20102;-52
2023/01/08 10:25:21;;;;;;;24.52;12.75;;;9.20;99.90;;;;;;5096857;28;20083;-53
2023/01/08 10:28:01;;;;;;;12.68;7.53;;;9.20;99.90;;;;;;5089792;28;20036;-52
2023/01/08 10:30:29;;;;;;;28.27;12.52;;;9.20;99.90;;;;;;5101427;28;20039;-56
2023/01/08 10:32:57;;;;;;;17.92;9.48;;;9.10;99.90;;;;;;5082529;28;20036;-52
2023/01/08 10:35:36;;;;;;;14.07;7.40;;;9.20;99.90;;;;;;5099466;28;20550;-51
2023/01/08 10:38:01;;;;;;;21.02;10.57;;;9.20;99.90;;;;;;5078019;28;20059;-50
2023/01/08 10:40:45;;;;;;;12.60;7.40;;;9.10;99.90;;;;;;5086534;28;20090;-53
2023/01/08 10:43:15;;;;;;;20.38;9.15;;;9.10;99.90;;;;;;5085548;28;20031;-50
2023/01/08 10:45:42;;;;;;;23.95;10.65;;;9.10;99.90;;;;;;5096139;28;20492;-52
2023/01/08 10:48:16;;;;;;;14.98;8.23;;;9.10;99.90;;;;;;5085256;28;20470;-52
2023/01/08 10:50:42;;;;;;;13.68;7.10;;;9.10;99.90;;;;;;5072034;28;20127;-52
2023/01/08 10:53:23;;;;;;;20.83;11.82;;;9.00;99.90;;;;;;5099440;28;20110;-51
2023/01/08 10:55:57;;;;;;;17.73;11.50;;;9.00;99.90;;;;;;5085499;28;20032;-53
2023/01/08 10:58:23;;;;;;;18.83;12.02;;;9.00;99.90;;;;;;5089344;28;20065;-53
2023/01/08 11:00:49;;;;;;;26.83;14.18;;;9.00;99.90;;;;;;5097172;28;20037;-52
2023/01/08 11:03:32;;;;;;;18.55;9.68;;;9.00;99.90;;;;;;5092854;28;20091;-51
2023/01/08 11:05:57;;;;;;;18.27;9.80;;;9.00;99.90;;;;;;5083527;28;20028;-53
2023/01/08 11:08:23;;;;;;;18.45;11.32;;;9.00;99.90;;;;;;5088739;28;20032;-52
2023/01/08 11:11:09;;;;;;;11.80;7.93;;;9.00;99.90;;;;;;5100158;28;20085;-51
2023/01/08 11:13:35;;;;;;;109.20;43.08;;;9.10;99.90;;;;;;5075710;28;20085;-51
2023/01/08 11:16:11;;;;;;;78.80;32.10;;;9.10;99.90;;;;;;5093436;28;20040;-51
2023/01/08 11:18:45;;;;;;;;;;;9.10;99.90;;;;;;5089360;28;20476;-51
2023/01/08 11:21:20;;;;;;;29.40;16.33;;;9.20;99.90;;;;;;5097331;28;19930;-48
2023/01/08 11:23:45;;;;;;;19.20;11.23;;;9.20;99.90;;;;;;5092279;28;20676;-49
2023/01/08 11:26:16;;;;;;;17.92;8.90;;;9.30;99.90;;;;;;5099182;28;20038;-53
2023/01/08 11:28:57;;;;;;;10.43;6.75;;;9.30;99.90;;;;;;5093778;28;20113;-54
2023/01/08 11:31:33;;;;;;;10.13;6.82;;;9.30;99.90;;;;;;5090811;28;20620;-47
2023/01/08 11:34:06;;;;;;;10.13;5.60;;;9.40;99.90;;;;;;5088531;28;20534;-48
2023/01/08 11:36:35;;;;;;;9.55;5.13;;;9.50;99.90;;;;;;5074933;28;20024;-49
2023/01/08 11:39:01;;;;;;;7.30;5.15;;;9.50;99.90;;;;;;5110357;28;20034;-47
2023/01/08 11:42:01;;;;;;;7.82;5.65;;;9.50;99.90;;;;;;5088111;28;20107;-58
2023/01/08 11:44:48;;;;;;;8.43;5.38;;;9.50;99.90;;;;;;5109706;28;20396;-48
2023/01/08 11:47:40;;;;;;;9.32;6.10;;;9.40;99.90;;;;;;5082041;28;20480;-51
2023/01/08 11:50:15;;;;;;;6.78;4.70;;;9.40;99.90;;;;;;5069983;28;20024;-50
2023/01/08 11:53:05;;;;;;;12.15;8.25;;;9.50;99.90;;;;;;5091053;28;20031;-51
2023/01/08 11:56:06;;;;;;;8.40;5.88;;;9.40;99.90;;;;;;5069072;28;20036;-50
2023/01/08 11:59:17;;;;;;;5.95;4.57;;;9.50;99.90;;;;;;5061041;28;20078;-55
2023/01/08 12:02:00;;;;;;;5.88;4.25;;;9.40;99.90;;;;;;5086504;28;20027;-57
2023/01/08 12:04:52;;;;;;;7.43;5.22;;;9.40;99.90;;;;;;5070078;28;20025;-53
2023/01/08 12:07:26;;;;;;;9.30;5.28;;;9.40;99.90;;;;;;5095064;28;20440;-50
2023/01/08 12:10:14;;;;;;;11.50;6.15;;;9.40;99.90;;;;;;5070101;28;20094;-58
2023/01/08 12:13:16;;;;;;;10.20;5.10;;;9.40;99.90;;;;;;5089176;28;20073;-56
2023/01/08 12:16:19;;;;;;;7.28;3.80;;;9.40;99.90;;;;;;5069477;28;20032;-55
2023/01/08 12:18:51;;;;;;;7.22;3.75;;;9.40;99.90;;;;;;5110602;28;20115;-57
2023/01/08 12:21:31;;;;;;;6.82;4.00;;;9.50;99.90;;;;;;5094241;28;20030;-54
2023/01/08 12:24:21;;;;;;;7.45;3.30;;;9.60;99.90;;;;;;5110595;28;20027;-54
2023/01/08 12:27:28;;;;;;;4.22;3.10;;;9.60;99.90;;;;;;5087333;28;20095;-51
2023/01/08 12:30:24;;;;;;;4.35;3.28;;;9.70;99.90;;;;;;5071959;28;20032;-54
2023/01/08 12:33:01;;;;;;;3.90;3.13;;;9.70;99.90;;;;;;5072839;28;20034;-52
2023/01/08 12:35:35;;;;;;;5.28;3.80;;;9.70;99.90;;;;;;5083120;28;20079;-56
2023/01/08 12:38:26;;;;;;;6.72;3.70;;;9.70;99.90;;;;;;5087408;28;20039;-54
2023/01/08 12:40:56;;;;;;;5.47;3.50;;;9.80;99.90;;;;;;5087927;28;20031;-55
2023/01/08 12:43:30;;;;;;;5.20;3.70;;;9.70;99.90;;;;;;5090733;28;20053;-54
2023/01/08 12:45:59;;;;;;;4.47;3.25;;;9.70;99.90;;;;;;5082531;28;20027;-54
2023/01/08 12:48:28;;;;;;;6.55;4.82;;;9.80;99.90;;;;;;5088722;28;20024;-55
2023/01/08 12:51:18;;;;;;;6.53;3.92;;;9.80;99.90;;;;;;5092264;28;20507;-54
2023/01/08 12:54:07;;;;;;;5.43;3.15;;;9.80;99.90;;;;;;5093337;28;20101;-53
2023/01/08 12:56:59;;;;;;;8.07;4.13;;;9.90;99.90;;;;;;5087183;28;20411;-56
2023/01/08 12:59:47;;;;;;;5.53;4.00;;;9.90;99.90;;;;;;5096947;28;20036;-53
2023/01/08 13:02:48;;;;;;;6.53;3.85;;;10.00;99.90;;;;;;5093449;28;20039;-54
2023/01/08 13:05:35;;;;;;;7.78;4.65;;;10.00;99.90;;;;;;5083976;28;20509;-55
2023/01/08 13:08:04;;;;;;;4.72;3.67;;;10.00;99.90;;;;;;5102532;28;20111;-56
2023/01/08 13:10:38;;;;;;;4.97;3.70;;;9.90;99.90;;;;;;5093123;28;20040;-52
2023/01/08 13:13:05;;;;;;;4.15;3.53;;;9.90;99.90;;;;;;5077226;28;20069;-56